Time;durP1;ratioP1;P1;durP2;ratioP2;P2;SDS_P1;SDS_P2;PMS_P1;PMS_P2;Temp;Humidity;BMP_temperature;BMP_pressure;BME280_temperature;BME280_humidity;BME280_pressure;Samples;Min_cycle;Max_cycle;Signal;HPM_P1;HPM_P2
2022/05/05 00:00:09;;;;;;;11.52;7.25;;;;;;;;;;4927829;28;20070;-84
2022/05/05 00:02:38;;;;;;;13.02;7.15;;;;;;;;;;4941559;28;20027;-86
2022/05/05 00:05:04;;;;;;;13.10;6.80;;;;;;;;;;4926122;28;20038;-86
2022/05/05 00:07:30;;;;;;;13.60;7.78;;;;;;;;;;4942601;28;20096;-87
2022/05/05 00:09:55;;;;;;;14.13;7.88;;;;;;;;;;4927651;28;20035;-88
2022/05/05 00:15:16;;;;;;;14.73;7.72;;;;;;;;;;4923820;28;20054;-83
2022/05/05 00:17:41;;;;;;;13.57;8.27;;;;;;;;;;4926766;28;20019;-83
2022/05/05 00:20:07;;;;;;;16.00;8.20;;;;;;;;;;4925502;29;20127;-87
2022/05/05 00:22:33;;;;;;;10.95;7.97;;;;;;;;;;4932045;29;20027;-87
2022/05/05 00:24:58;;;;;;;13.88;8.35;;;;;;;;;;4924094;29;20045;-87
2022/05/05 00:27:24;;;;;;;12.02;7.68;;;;;;;;;;4923529;29;20035;-88
2022/05/05 00:29:51;;;;;;;13.82;7.47;;;;;;;;;;4924211;29;20042;-88
2022/05/05 00:32:16;;;;;;;12.88;7.78;;;;;;;;;;4940246;29;20120;-87
2022/05/05 00:34:42;;;;;;;14.35;8.40;;;;;;;;;;4941985;28;20118;-87
2022/05/05 00:37:08;;;;;;;12.02;7.70;;;;;;;;;;4976003;28;20038;-87
2022/05/05 00:39:33;;;;;;;20.70;9.88;;;;;;;;;;4943726;28;20030;-86
2022/05/05 00:42:00;;;;;;;14.77;8.32;;;;;;;;;;4943394;28;20030;-84
2022/05/05 00:44:26;;;;;;;14.57;8.63;;;;;;;;;;4942733;28;20035;-85
2022/05/05 00:46:51;;;;;;;14.25;7.80;;;;;;;;;;4941761;28;20042;-84
2022/05/05 00:49:18;;;;;;;14.93;7.93;;;;;;;;;;4957702;28;20049;-85
2022/05/05 00:51:44;;;;;;;13.98;7.63;;;;;;;;;;4965022;28;20050;-86
2022/05/05 00:54:10;;;;;;;16.58;8.48;;;;;;;;;;4957889;28;20039;-84
2022/05/05 00:56:36;;;;;;;18.45;9.23;;;;;;;;;;4952756;28;20049;-81
2022/05/05 00:59:03;;;;;;;16.25;9.32;;;;;;;;;;4966610;28;20046;-81
2022/05/05 01:01:30;;;;;;;17.50;9.00;;;;;;;;;;5082312;22;20102;-82
2022/05/05 01:04:01;;;;;;;18.35;10.10;;;;;;;;;;4999401;28;20378;-84
2022/05/05 01:09:18;;;;;;;13.45;9.00;;;;;;;;;;4958877;28;20048;-81
2022/05/05 01:11:45;;;;;;;15.55;9.10;;;;;;;;;;4912429;28;20044;-83
2022/05/05 01:14:14;;;;;;;15.88;10.02;;;;;;;;;;4943490;28;20035;-82
2022/05/05 01:16:43;;;;;;;20.45;8.85;;;;;;;;;;4922190;29;20032;-83
2022/05/05 01:19:16;;;;;;;19.85;9.20;;;;;;;;;;4922361;29;20047;-84
2022/05/05 01:21:57;;;;;;;17.50;10.15;;;;;;;;;;4938743;29;20047;-82
2022/05/05 01:29:59;;;;;;;18.05;10.10;;;;;;;;;;4952366;29;20032;-82
2022/05/05 01:32:33;;;;;;;16.42;11.05;;;;;;;;;;4921762;29;20036;-83
2022/05/05 01:34:59;;;;;;;18.40;10.25;;;;;;;;;;4937905;29;20035;-82
2022/05/05 01:37:27;;;;;;;15.52;11.07;;;;;;;;;;4907867;29;20028;-81
2022/05/05 01:39:53;;;;;;;22.05;11.60;;;;;;;;;;4937954;29;20109;-82
2022/05/05 01:42:19;;;;;;;16.48;10.63;;;;;;;;;;4905555;29;20042;-82
2022/05/05 01:44:47;;;;;;;18.05;10.77;;;;;;;;;;4945001;29;20035;-81
2022/05/05 01:47:15;;;;;;;15.38;10.40;;;;;;;;;;4913060;29;20494;-81
2022/05/05 01:49:45;;;;;;;17.23;10.27;;;;;;;;;;4925503;29;20036;-81
2022/05/05 01:52:12;;;;;;;17.50;11.10;;;;;;;;;;4910275;29;20052;-81
2022/05/05 01:54:38;;;;;;;17.45;11.55;;;;;;;;;;4909340;29;20484;-81
2022/05/05 01:57:06;;;;;;;14.80;11.13;;;;;;;;;;4909825;29;20119;-81
2022/05/05 01:59:33;;;;;;;22.83;10.80;;;;;;;;;;4911814;29;20487;-81
2022/05/05 02:01:59;;;;;;;17.33;10.55;;;;;;;;;;4944055;29;20091;-81
2022/05/05 02:04:26;;;;;;;15.38;11.10;;;;;;;;;;4927681;29;20036;-80
2022/05/05 02:06:53;;;;;;;17.90;11.65;;;;;;;;;;4931717;29;20028;-82
2022/05/05 02:09:22;;;;;;;13.88;9.75;;;;;;;;;;4931530;29;20095;-81
2022/05/05 02:11:48;;;;;;;18.45;11.48;;;;;;;;;;4912847;29;20040;-80
2022/05/05 02:14:14;;;;;;;18.13;12.68;;;;;;;;;;4915864;29;20028;-80
2022/05/05 02:16:40;;;;;;;22.30;11.60;;;;;;;;;;4896218;29;20036;-80
2022/05/05 02:19:06;;;;;;;16.25;11.65;;;;;;;;;;4898509;29;20047;-80
2022/05/05 02:21:32;;;;;;;21.92;11.80;;;;;;;;;;4900942;29;20036;-80
2022/05/05 02:23:58;;;;;;;18.65;11.20;;;;;;;;;;4904912;29;20047;-82
2022/05/05 02:26:24;;;;;;;19.92;13.32;;;;;;;;;;4938524;29;20032;-80
2022/05/05 02:28:49;;;;;;;22.73;12.23;;;;;;;;;;4905046;29;20028;-81
2022/05/05 02:31:19;;;;;;;18.75;12.25;;;;;;;;;;4911279;29;20037;-80
2022/05/05 02:33:49;;;;;;;17.15;12.10;;;;;;;;;;4892928;29;20041;-80
2022/05/05 02:39:04;;;;;;;18.23;11.77;;;;;;;;;;4893908;29;20469;-83
2022/05/05 02:41:34;;;;;;;19.17;12.27;;;;;;;;;;4903473;29;20047;-83
2022/05/05 02:44:09;;;;;;;17.35;12.57;;;;;;;;;;4889578;29;20064;-82
2022/05/05 02:46:45;;;;;;;17.30;12.80;;;;;;;;;;4890536;29;20034;-83
2022/05/05 02:49:20;;;;;;;19.17;12.43;;;;;;;;;;4904059;29;20029;-83
2022/05/05 02:51:52;;;;;;;19.70;13.63;;;;;;;;;;4887042;29;20076;-81
2022/05/05 02:57:06;;;;;;;19.83;11.60;;;;;;;;;;4918885;29;20096;-82
2022/05/05 02:59:36;;;;;;;20.88;12.15;;;;;;;;;;4901845;29;20033;-82
2022/05/05 03:02:06;;;;;;;19.90;12.93;;;;;;;;;;4872693;29;20043;-82
2022/05/05 03:04:34;;;;;;;21.98;12.38;;;;;;;;;;4916659;29;20036;-81
2022/05/05 03:07:03;;;;;;;18.73;11.30;;;;;;;;;;4918439;29;20141;-81
2022/05/05 03:09:35;;;;;;;20.38;12.05;;;;;;;;;;4934820;29;20047;-82
2022/05/05 03:12:12;;;;;;;26.25;14.48;;;;;;;;;;4909056;29;20048;-83
2022/05/05 03:14:51;;;;;;;17.17;11.55;;;;;;;;;;4896493;28;20280;-84
2022/05/05 03:17:17;;;;;;;19.55;12.32;;;;;;;;;;4910806;29;20020;-81
2022/05/05 03:19:46;;;;;;;22.45;12.25;;;;;;;;;;5115536;23;20122;31
2022/05/05 03:22:12;;;;;;;18.42;11.43;;;;;;;;;;4938654;29;20039;-82
2022/05/05 03:24:39;;;;;;;17.27;11.20;;;;;;;;;;4941649;29;20044;-82
2022/05/05 03:27:11;;;;;;;20.85;11.35;;;;;;;;;;4955956;29;20036;-81
2022/05/05 03:29:42;;;;;;;20.50;12.38;;;;;;;;;;4919468;29;20044;-81
2022/05/05 03:32:09;;;;;;;18.85;12.55;;;;;;;;;;4948853;29;20032;-80
2022/05/05 03:34:35;;;;;;;17.80;12.15;;;;;;;;;;4932301;29;20034;-80
2022/05/05 03:37:01;;;;;;;15.70;11.85;;;;;;;;;;4920704;29;20056;-81
2022/05/05 03:39:27;;;;;;;16.17;10.95;;;;;;;;;;4913724;29;20032;-80
2022/05/05 03:41:54;;;;;;;20.67;12.20;;;;;;;;;;4915393;29;20032;-81
2022/05/05 03:44:23;;;;;;;22.10;12.13;;;;;;;;;;4919772;29;20043;-80
2022/05/05 03:46:49;;;;;;;19.55;11.30;;;;;;;;;;5108334;23;20040;-80
2022/05/05 03:49:16;;;;;;;17.58;10.77;;;;;;;;;;4940315;29;20123;-79
2022/05/05 03:51:42;;;;;;;17.30;11.00;;;;;;;;;;4958324;29;20019;-81
2022/05/05 03:54:08;;;;;;;18.88;12.07;;;;;;;;;;4958408;28;20012;-81
2022/05/05 03:56:35;;;;;;;20.85;11.40;;;;;;;;;;4942074;29;20161;-82
2022/05/05 03:59:01;;;;;;;20.45;11.52;;;;;;;;;;4926612;29;20040;-81
2022/05/05 04:01:28;;;;;;;19.20;11.40;;;;;;;;;;4976499;28;20067;-80
2022/05/05 04:03:54;;;;;;;21.00;10.82;;;;;;;;;;4942679;28;20031;-80
2022/05/05 04:06:20;;;;;;;17.83;11.32;;;;;;;;;;4940239;29;20028;-80
2022/05/05 04:08:46;;;;;;;20.90;12.45;;;;;;;;;;4956961;29;20064;-80
2022/05/05 04:11:15;;;;;;;20.20;11.02;;;;;;;;;;4923206;29;20068;-80
2022/05/05 04:13:41;;;;;;;20.98;12.02;;;;;;;;;;4956379;29;20088;-80
2022/05/05 04:16:11;;;;;;;19.15;10.50;;;;;;;;;;4956271;28;20028;-81
2022/05/05 04:18:37;;;;;;;15.27;10.88;;;;;;;;;;4939277;29;20091;-81
2022/05/05 04:21:03;;;;;;;16.30;10.57;;;;;;;;;;4907857;29;20027;-80
2022/05/05 04:23:29;;;;;;;19.83;10.57;;;;;;;;;;4954617;29;20008;-80
2022/05/05 04:25:55;;;;;;;21.02;11.27;;;;;;;;;;4956659;28;20024;-81
2022/05/05 04:28:22;;;;;;;19.40;11.75;;;;;;;;;;4944319;28;20116;-82
2022/05/05 04:30:49;;;;;;;16.02;10.82;;;;;;;;;;4944363;28;20056;-81
2022/05/05 04:33:15;;;;;;;18.02;10.43;;;;;;;;;;4936393;29;20035;-80
2022/05/05 04:35:40;;;;;;;16.40;10.32;;;;;;;;;;4945760;29;20031;-78
2022/05/05 04:38:07;;;;;;;16.20;10.60;;;;;;;;;;4928572;29;20415;-79
2022/05/05 04:40:33;;;;;;;22.73;12.27;;;;;;;;;;4930385;29;20042;-78
2022/05/05 04:42:59;;;;;;;21.33;11.10;;;;;;;;;;4961706;29;20036;-79
2022/05/05 04:45:24;;;;;;;16.13;9.65;;;;;;;;;;4947916;29;20087;-79
2022/05/05 04:47:50;;;;;;;15.73;9.55;;;;;;;;;;4950100;29;20032;-80
2022/05/05 04:50:17;;;;;;;19.88;10.52;;;;;;;;;;4932288;29;20099;-79
2022/05/05 04:52:42;;;;;;;19.85;9.60;;;;;;;;;;4946515;29;20036;-80
2022/05/05 04:55:11;;;;;;;15.27;8.85;;;;;;;;;;4949067;29;20051;-80
2022/05/05 04:57:38;;;;;;;14.93;9.30;;;;;;;;;;4948433;29;20031;-79
2022/05/05 05:00:05;;;;;;;20.00;10.23;;;;;;;;;;4942612;29;20036;-80
2022/05/05 05:02:31;;;;;;;16.83;9.63;;;;;;;;;;4899189;29;20048;-79
2022/05/05 05:04:57;;;;;;;15.43;11.10;;;;;;;;;;4932048;29;20039;-79
2022/05/05 05:07:23;;;;;;;18.30;9.93;;;;;;;;;;4934081;29;20400;-79
2022/05/05 05:09:49;;;;;;;14.45;9.32;;;;;;;;;;4930892;29;20056;-80
2022/05/05 05:12:22;;;;;;;16.58;9.52;;;;;;;;;;4913912;29;20040;-80
2022/05/05 05:14:48;;;;;;;17.35;9.77;;;;;;;;;;4931028;29;20051;-79
2022/05/05 05:17:15;;;;;;;19.20;10.38;;;;;;;;;;4944655;29;20032;-79
2022/05/05 05:19:41;;;;;;;19.85;9.45;;;;;;;;;;4938130;29;20067;-81
2022/05/05 05:22:07;;;;;;;26.02;10.65;;;;;;;;;;4938122;29;20032;-79
2022/05/05 05:24:33;;;;;;;17.00;8.93;;;;;;;;;;4948745;29;20024;-78
2022/05/05 05:26:59;;;;;;;17.70;10.02;;;;;;;;;;4948518;29;20032;-79
2022/05/05 05:29:25;;;;;;;18.05;9.45;;;;;;;;;;4947017;29;20099;-81
2022/05/05 05:31:51;;;;;;;17.63;9.73;;;;;;;;;;4919138;29;20040;-81
2022/05/05 05:34:17;;;;;;;18.17;10.45;;;;;;;;;;4917046;29;20039;-82
2022/05/05 05:36:46;;;;;;;16.15;10.07;;;;;;;;;;4940228;29;20119;-81
2022/05/05 05:39:15;;;;;;;20.15;9.80;;;;;;;;;;4923413;29;20044;-82
2022/05/05 05:41:43;;;;;;;18.73;9.48;;;;;;;;;;4940145;29;20039;-83
2022/05/05 05:44:09;;;;;;;20.58;9.65;;;;;;;;;;4918936;29;20033;-80
2022/05/05 05:46:35;;;;;;;17.30;12.18;;;;;;;;;;4918802;29;20070;-83
2022/05/05 05:49:00;;;;;;;14.20;9.15;;;;;;;;;;4923888;29;20047;-81
2022/05/05 05:51:26;;;;;;;19.70;10.55;;;;;;;;;;4955179;29;20031;-81
2022/05/05 05:53:53;;;;;;;14.95;8.65;;;;;;;;;;4940740;29;20089;-82
2022/05/05 05:56:24;;;;;;;15.50;9.00;;;;;;;;;;4933503;29;20035;-81
2022/05/05 05:58:51;;;;;;;16.05;7.90;;;;;;;;;;4932308;29;20067;-80
2022/05/05 06:01:20;;;;;;;15.90;9.05;;;;;;;;;;4937606;29;20028;-80
2022/05/05 06:03:54;;;;;;;16.65;9.00;;;;;;;;;;4936734;29;20071;-82
2022/05/05 06:06:21;;;;;;;20.10;8.35;;;;;;;;;;4935627;29;20043;-79
2022/05/05 06:08:47;;;;;;;17.40;8.85;;;;;;;;;;4941680;29;20126;-78
2022/05/05 06:11:14;;;;;;;16.30;10.43;;;;;;;;;;4948460;29;20063;-80
2022/05/05 06:13:40;;;;;;;12.57;8.07;;;;;;;;;;4941624;29;20066;-80
2022/05/05 06:16:09;;;;;;;14.60;8.18;;;;;;;;;;4937928;29;20036;-81
2022/05/05 06:18:39;;;;;;;11.48;7.28;;;;;;;;;;4957610;29;20031;-81
2022/05/05 06:21:06;;;;;;;15.63;8.20;;;;;;;;;;4942316;29;20055;-80
2022/05/05 06:23:32;;;;;;;13.10;8.15;;;;;;;;;;4924743;29;20020;-81
2022/05/05 06:25:58;;;;;;;17.40;7.95;;;;;;;;;;4974948;28;20111;-82
2022/05/05 06:28:27;;;;;;;14.25;8.38;;;;;;;;;;4945402;28;20019;-82
2022/05/05 06:30:57;;;;;;;13.98;7.43;;;;;;;;;;4928663;29;20044;-79
2022/05/05 06:33:23;;;;;;;17.40;9.45;;;;;;;;;;4941162;29;20094;-79
2022/05/05 06:35:49;;;;;;;15.50;8.45;;;;;;;;;;4958857;28;20060;-82
2022/05/05 06:38:16;;;;;;;15.07;8.93;;;;;;;;;;4942905;29;20024;-81
2022/05/05 06:40:43;;;;;;;12.07;7.45;;;;;;;;;;4934792;29;20035;-76
2022/05/05 06:43:09;;;;;;;13.20;7.40;;;;;;;;;;4948451;29;20040;-77
2022/05/05 06:45:35;;;;;;;13.13;7.22;;;;;;;;;;4950329;29;20100;-76
2022/05/05 06:48:01;;;;;;;11.45;6.68;;;;;;;;;;4932128;29;20145;-76
2022/05/05 06:50:28;;;;;;;13.55;7.18;;;;;;;;;;4951552;29;20043;-77
2022/05/05 06:52:53;;;;;;;11.60;5.53;;;;;;;;;;4935414;29;20027;-76
2022/05/05 06:55:19;;;;;;;17.85;6.88;;;;;;;;;;4936749;29;20035;-76
2022/05/05 06:57:46;;;;;;;12.02;6.15;;;;;;;;;;4941809;29;20047;-76
2022/05/05 07:00:12;;;;;;;9.48;5.63;;;;;;;;;;4939168;29;20031;-75
2022/05/05 07:02:37;;;;;;;13.05;6.13;;;;;;;;;;4937551;29;20047;-75
2022/05/05 07:07:48;;;;;;;11.80;5.65;;;;;;;;;;4920617;29;20042;-75
2022/05/05 07:12:58;;;;;;;14.02;6.28;;;;;;;;;;4936481;29;20032;-76
2022/05/05 07:15:24;;;;;;;9.48;6.40;;;;;;;;;;4939406;29;20066;-76
2022/05/05 07:17:52;;;;;;;11.27;6.80;;;;;;;;;;4924470;29;20110;-77
2022/05/05 07:20:18;;;;;;;12.05;5.60;;;;;;;;;;4913533;29;20044;-76
2022/05/05 07:22:44;;;;;;;12.38;6.25;;;;;;;;;;4931960;29;20091;-75
2022/05/05 07:25:10;;;;;;;11.18;5.95;;;;;;;;;;4949445;29;20081;-76
2022/05/05 07:27:35;;;;;;;11.07;5.85;;;;;;;;;;4944746;29;20405;-74
2022/05/05 07:30:01;;;;;;;12.40;6.95;;;;;;;;;;4928385;29;20099;-75
2022/05/05 07:32:28;;;;;;;10.00;5.53;;;;;;;;;;4917821;29;20421;-76
2022/05/05 07:34:54;;;;;;;12.88;5.75;;;;;;;;;;4918327;29;20028;-75
2022/05/05 07:37:20;;;;;;;14.05;5.88;;;;;;;;;;4901280;29;20377;-75
2022/05/05 07:39:45;;;;;;;10.65;5.43;;;;;;;;;;4916963;29;20032;-75
2022/05/05 07:42:11;;;;;;;12.80;6.43;;;;;;;;;;4885890;29;20043;-76
2022/05/05 07:44:37;;;;;;;11.05;5.63;;;;;;;;;;4922132;29;20055;-76
2022/05/05 07:47:03;;;;;;;8.13;5.28;;;;;;;;;;4930565;29;20038;-77
2022/05/05 07:49:28;;;;;;;10.75;5.50;;;;;;;;;;4937509;29;20113;-76
2022/05/05 07:51:54;;;;;;;11.85;5.32;;;;;;;;;;4936190;29;20563;-75
2022/05/05 07:54:35;;;;;;;10.48;6.47;;;;;;;;;;4938154;29;20047;-76
2022/05/05 07:57:01;;;;;;;10.45;5.47;;;;;;;;;;4924424;29;20114;-76
2022/05/05 07:59:26;;;;;;;9.25;5.65;;;;;;;;;;4939417;29;20039;-75
2022/05/05 08:01:53;;;;;;;14.60;6.03;;;;;;;;;;4936614;29;20036;-75
2022/05/05 08:04:19;;;;;;;14.60;6.28;;;;;;;;;;4920253;29;20036;-77
2022/05/05 08:06:45;;;;;;;12.18;5.68;;;;;;;;;;4917662;29;20075;-76
2022/05/05 08:09:11;;;;;;;15.55;6.93;;;;;;;;;;4916054;29;20526;-75
2022/05/05 08:11:37;;;;;;;12.18;5.45;;;;;;;;;;4916009;29;20028;-76
2022/05/05 08:14:04;;;;;;;11.02;5.32;;;;;;;;;;4915321;29;20110;-77
2022/05/05 08:16:30;;;;;;;12.77;5.07;;;;;;;;;;4915398;29;20137;-76
2022/05/05 08:18:56;;;;;;;14.73;5.57;;;;;;;;;;4926878;29;20038;-75
2022/05/05 08:21:21;;;;;;;10.15;4.93;;;;;;;;;;4917884;29;20023;-77
2022/05/05 08:23:47;;;;;;;9.68;5.40;;;;;;;;;;4933860;29;20032;-77
2022/05/05 08:28:57;;;;;;;15.27;5.40;;;;;;;;;;4933616;29;20483;-76
2022/05/05 08:31:22;;;;;;;13.43;6.47;;;;;;;;;;4935058;29;20039;-76
2022/05/05 08:33:49;;;;;;;10.55;6.20;;;;;;;;;;4933361;29;20100;-76
2022/05/05 08:36:15;;;;;;;12.30;6.38;;;;;;;;;;4926135;29;20024;-77
2022/05/05 08:38:41;;;;;;;13.63;7.03;;;;;;;;;;4922303;29;20117;-75
2022/05/05 08:41:12;;;;;;;14.48;6.80;;;;;;;;;;4914649;29;20028;-76
2022/05/05 08:43:38;;;;;;;10.48;6.35;;;;;;;;;;4914264;29;20043;-76
2022/05/05 08:46:03;;;;;;;16.40;7.80;;;;;;;;;;4898526;29;20114;-75
2022/05/05 08:48:31;;;;;;;15.20;6.88;;;;;;;;;;4914712;29;20123;-77
2022/05/05 08:51:00;;;;;;;13.05;7.50;;;;;;;;;;4915882;29;20038;-77
2022/05/05 08:53:30;;;;;;;13.70;7.00;;;;;;;;;;4902623;29;20028;-77
2022/05/05 08:55:56;;;;;;;12.88;7.60;;;;;;;;;;4926507;29;20114;-76
2022/05/05 08:58:22;;;;;;;12.27;7.22;;;;;;;;;;4934167;29;20114;-78
2022/05/05 09:00:51;;;;;;;11.50;7.20;;;;;;;;;;4934813;29;20032;-75
2022/05/05 09:03:18;;;;;;;14.55;6.95;;;;;;;;;;4932810;29;20377;-76
2022/05/05 09:05:44;;;;;;;11.55;5.53;;;;;;;;;;4933164;29;20111;-76
2022/05/05 09:08:26;;;;;;;13.10;7.00;;;;;;;;;;4932687;29;20106;-77
2022/05/05 09:10:55;;;;;;;12.93;6.38;;;;;;;;;;4931969;29;20063;-77
2022/05/05 09:13:22;;;;;;;11.40;7.00;;;;;;;;;;4924747;29;20024;-75
2022/05/05 09:15:47;;;;;;;11.20;6.68;;;;;;;;;;4917392;29;20442;-77
2022/05/05 09:18:14;;;;;;;12.20;6.07;;;;;;;;;;4933475;29;20043;-77
2022/05/05 09:20:40;;;;;;;16.40;9.05;;;;;;;;;;4933109;29;20046;-76
2022/05/05 09:23:06;;;;;;;17.77;7.60;;;;;;;;;;4932724;29;20083;-77
2022/05/05 09:25:48;;;;;;;14.00;5.70;;;;;;;;;;4933311;29;20027;-77
2022/05/05 09:28:35;;;;;;;12.70;5.90;;;;;;;;;;4924835;29;20029;-77
2022/05/05 09:31:03;;;;;;;12.40;5.68;;;;;;;;;;4949431;29;20107;-77
2022/05/05 09:33:36;;;;;;;10.33;6.43;;;;;;;;;;4933107;29;20491;-77
2022/05/05 09:36:12;;;;;;;11.77;5.93;;;;;;;;;;4933984;29;20274;-77
2022/05/05 09:38:58;;;;;;;11.75;6.35;;;;;;;;;;4933629;29;20032;-77
2022/05/05 09:41:25;;;;;;;9.75;6.43;;;;;;;;;;4933708;29;20032;-76
2022/05/05 09:43:53;;;;;;;14.48;6.03;;;;;;;;;;4932138;29;20102;-77
2022/05/05 09:46:22;;;;;;;11.07;5.93;;;;;;;;;;4925035;29;20016;-76
2022/05/05 09:48:47;;;;;;;11.55;6.18;;;;;;;;;;4917421;29;20479;-76
2022/05/05 09:51:16;;;;;;;16.98;6.28;;;;;;;;;;4933129;29;20128;-76
2022/05/05 09:59:14;;;;;;;13.15;5.30;;;;;;;;;;4934422;29;20035;-75
2022/05/05 10:01:41;;;;;;;13.65;6.70;;;;;;;;;;4932801;29;20492;-76
2022/05/05 10:04:09;;;;;;;15.07;6.10;;;;;;;;;;4924916;29;20500;-75
2022/05/05 10:06:35;;;;;;;11.95;5.65;;;;;;;;;;4936409;29;20042;-76
2022/05/05 10:09:08;;;;;;;10.73;5.25;;;;;;;;;;4917634;29;20031;-76
2022/05/05 10:11:35;;;;;;;13.63;5.63;;;;;;;;;;4950455;29;20145;-75
2022/05/05 10:14:01;;;;;;;12.88;5.20;;;;;;;;;;4934148;29;20238;-76
2022/05/05 10:16:30;;;;;;;9.35;5.55;;;;;;;;;;4931668;29;20039;-77
2022/05/05 10:18:56;;;;;;;7.90;4.70;;;;;;;;;;4924528;29;20028;-75
2022/05/05 10:21:40;;;;;;;12.10;5.40;;;;;;;;;;4920020;29;20106;-77
2022/05/05 10:24:19;;;;;;;11.90;5.78;;;;;;;;;;4933940;29;20119;-76
2022/05/05 10:26:51;;;;;;;14.60;7.60;;;;;;;;;;4943269;29;20058;-77
2022/05/05 10:29:33;;;;;;;11.70;7.00;;;;;;;;;;4904530;29;20480;-76
2022/05/05 10:32:09;;;;;;;12.75;7.25;;;;;;;;;;4936755;29;20032;-75
2022/05/05 10:34:37;;;;;;;11.90;5.93;;;;;;;;;;4922951;29;20102;-76
2022/05/05 10:37:04;;;;;;;12.20;6.32;;;;;;;;;;4920753;29;20479;-77
2022/05/05 10:39:41;;;;;;;14.15;5.97;;;;;;;;;;4937146;29;20048;-76
2022/05/05 10:42:12;;;;;;;9.95;4.85;;;;;;;;;;4934764;29;20119;-76
2022/05/05 10:44:58;;;;;;;11.25;5.80;;;;;;;;;;4911430;29;20104;-77
2022/05/05 10:47:24;;;;;;;12.15;5.85;;;;;;;;;;4919917;29;20047;-76
2022/05/05 10:49:53;;;;;;;11.95;6.00;;;;;;;;;;4935737;29;20038;-78
2022/05/05 10:52:18;;;;;;;;;;;;;;;;;;4936327;29;20036;-75
2022/05/05 10:54:48;;;;;;;15.32;7.13;;;;;;;;;;4935354;29;19917;-76
2022/05/05 10:57:25;;;;;;;11.30;5.97;;;;;;;;;;4935255;29;20031;-76
2022/05/05 11:00:07;;;;;;;8.75;5.45;;;;;;;;;;4933847;29;20406;-75
2022/05/05 11:02:33;;;;;;;12.07;6.05;;;;;;;;;;4914721;29;20040;-77
2022/05/05 11:05:17;;;;;;;15.60;7.22;;;;;;;;;;4928793;29;20505;-77
2022/05/05 11:07:43;;;;;;;14.30;6.65;;;;;;;;;;4926316;29;20029;-77
2022/05/05 11:10:31;;;;;;;16.45;7.20;;;;;;;;;;4903099;29;20028;-76
2022/05/05 11:12:57;;;;;;;14.30;5.53;;;;;;;;;;4936233;29;20039;-75
2022/05/05 11:23:56;;;;;;;9.77;6.22;;;;;;;;;;4941791;29;20051;-78
2022/05/05 11:26:21;;;;;;;12.02;7.03;;;;;;;;;;4919381;29;20021;-77
2022/05/05 11:28:48;;;;;;;14.43;7.20;;;;;;;;;;4929503;29;20372;-78
2022/05/05 11:31:23;;;;;;;10.95;5.43;;;;;;;;;;4929544;29;20544;-76
2022/05/05 11:33:53;;;;;;;8.65;4.82;;;;;;;;;;4933951;29;20032;-76
2022/05/05 11:36:20;;;;;;;14.07;5.10;;;;;;;;;;4934439;29;20031;-77
2022/05/05 11:38:45;;;;;;;8.77;4.32;;;;;;;;;;4928968;29;20032;-76
2022/05/05 11:41:11;;;;;;;10.00;5.72;;;;;;;;;;4920268;29;20512;-77
2022/05/05 11:46:21;;;;;;;9.15;5.05;;;;;;;;;;4916311;29;20091;-78
2022/05/05 11:48:56;;;;;;;14.25;6.47;;;;;;;;;;4935715;29;20436;-74
2022/05/05 11:51:32;;;;;;;19.65;7.90;;;;;;;;;;4936057;29;20038;-76
2022/05/05 11:54:05;;;;;;;16.00;6.50;;;;;;;;;;4935472;29;20063;-76
2022/05/05 11:56:31;;;;;;;15.00;7.43;;;;;;;;;;4935843;29;20487;-75
2022/05/05 12:02:02;;;;;;;10.93;5.18;;;;;;;;;;4935661;29;20491;-77
2022/05/05 12:04:28;;;;;;;14.27;7.13;;;;;;;;;;4910505;29;20043;-75
2022/05/05 12:06:54;;;;;;;13.13;7.00;;;;;;;;;;4925628;29;20103;-76
2022/05/05 12:09:20;;;;;;;11.05;5.72;;;;;;;;;;4924925;29;20397;-75
2022/05/05 12:11:46;;;;;;;15.40;6.68;;;;;;;;;;4915386;29;20490;-75
2022/05/05 12:14:13;;;;;;;10.00;6.03;;;;;;;;;;4926208;29;20051;-76
2022/05/05 12:16:39;;;;;;;11.40;6.20;;;;;;;;;;4921988;29;20034;-76
2022/05/05 12:19:14;;;;;;;9.98;6.32;;;;;;;;;;4930335;29;20036;-76
2022/05/05 12:21:56;;;;;;;12.75;7.03;;;;;;;;;;4901807;29;20043;-74
2022/05/05 12:24:23;;;;;;;12.68;6.75;;;;;;;;;;4929104;29;20032;-76
2022/05/05 12:26:49;;;;;;;11.32;6.28;;;;;;;;;;4934688;29;20043;-76
2022/05/05 12:29:15;;;;;;;9.30;6.43;;;;;;;;;;4916559;29;20056;-76
2022/05/05 12:31:53;;;;;;;11.10;5.20;;;;;;;;;;4922666;29;20043;-76
2022/05/05 12:34:25;;;;;;;12.82;6.40;;;;;;;;;;4929491;29;20032;-76
2022/05/05 12:37:05;;;;;;;13.63;7.25;;;;;;;;;;4917841;29;20027;-76
2022/05/05 12:39:30;;;;;;;10.85;5.28;;;;;;;;;;4906865;29;20082;-75
2022/05/05 12:41:56;;;;;;;12.20;6.22;;;;;;;;;;4926988;29;20055;-76
2022/05/05 12:44:22;;;;;;;14.57;6.95;;;;;;;;;;4917213;29;20115;-76
2022/05/05 12:46:53;;;;;;;14.05;6.40;;;;;;;;;;4930963;29;20070;-75
2022/05/05 12:49:39;;;;;;;15.18;6.90;;;;;;;;;;4932477;29;20027;-76
2022/05/05 12:52:05;;;;;;;12.68;6.35;;;;;;;;;;4915437;29;20043;-76
2022/05/05 13:00:00;;;;;;;7.88;4.97;;;;;;;;;;4927356;29;20103;-77
2022/05/05 13:02:27;;;;;;;13.38;5.10;;;;;;;;;;4901711;29;20111;-77
2022/05/05 13:04:52;;;;;;;11.70;4.82;;;;;;;;;;4930130;29;20032;-78
2022/05/05 13:07:19;;;;;;;15.23;5.43;;;;;;;;;;4924182;29;20596;-76
2022/05/05 13:09:45;;;;;;;10.05;4.60;;;;;;;;;;4922501;29;20453;-77
2022/05/05 13:12:10;;;;;;;8.77;4.53;;;;;;;;;;4927841;29;20031;-76
2022/05/05 13:14:36;;;;;;;11.45;5.22;;;;;;;;;;4918344;29;20488;-76
2022/05/05 13:17:03;;;;;;;13.05;4.22;;;;;;;;;;4928443;29;20119;-76
2022/05/05 13:19:29;;;;;;;10.10;4.80;;;;;;;;;;4924665;29;20110;-76
2022/05/05 13:21:56;;;;;;;11.25;4.47;;;;;;;;;;4924250;29;20036;-77
2022/05/05 13:24:21;;;;;;;13.05;4.82;;;;;;;;;;4915220;29;20594;-75
2022/05/05 13:26:47;;;;;;;8.68;4.68;;;;;;;;;;4918764;29;20038;-78
2022/05/05 13:29:13;;;;;;;10.30;4.43;;;;;;;;;;4941622;29;20047;-77
2022/05/05 13:31:39;;;;;;;13.85;4.72;;;;;;;;;;4922375;29;20050;-77
2022/05/05 13:34:05;;;;;;;13.57;5.15;;;;;;;;;;4919776;29;20055;-78
2022/05/05 13:36:30;;;;;;;8.55;3.65;;;;;;;;;;4926515;29;20040;-76
2022/05/05 13:38:56;;;;;;;8.27;3.83;;;;;;;;;;4919223;29;20483;-78
2022/05/05 13:41:22;;;;;;;8.02;4.22;;;;;;;;;;4919662;29;20040;-77
2022/05/05 13:43:47;;;;;;;10.00;3.85;;;;;;;;;;4910320;29;20044;-79
2022/05/05 13:46:13;;;;;;;7.47;3.38;;;;;;;;;;4933578;29;20631;-78
2022/05/05 13:48:39;;;;;;;9.57;4.20;;;;;;;;;;4919542;29;20032;-77
2022/05/05 13:51:14;;;;;;;11.40;4.15;;;;;;;;;;4927655;29;20079;-78
2022/05/05 13:53:39;;;;;;;7.68;3.45;;;;;;;;;;4932161;29;20035;-78
2022/05/05 13:56:05;;;;;;;11.23;4.05;;;;;;;;;;4922664;29;20047;-78
2022/05/05 13:58:30;;;;;;;10.43;3.95;;;;;;;;;;4938671;29;20027;-76
2022/05/05 14:00:59;;;;;;;14.32;4.10;;;;;;;;;;4954119;29;20028;-75
2022/05/05 14:03:28;;;;;;;7.25;3.22;;;;;;;;;;4922636;29;20087;-78
2022/05/05 14:05:53;;;;;;;13.23;3.50;;;;;;;;;;4938241;29;20032;-76
2022/05/05 14:13:48;;;;;;;7.85;2.97;;;;;;;;;;4936454;29;20041;-76
2022/05/05 14:16:15;;;;;;;8.85;3.55;;;;;;;;;;4939148;29;20040;-77
2022/05/05 14:18:49;;;;;;;21.80;6.90;;;;;;;;;;4920758;29;20036;-78
2022/05/05 14:21:19;;;;;;;17.15;6.00;;;;;;;;;;4903535;29;20480;-77
2022/05/05 14:23:44;;;;;;;6.10;2.33;;;;;;;;;;4903390;29;20032;-77
2022/05/05 14:26:10;;;;;;;11.60;4.07;;;;;;;;;;4919428;29;20433;-77
2022/05/05 14:28:36;;;;;;;23.58;7.20;;;;;;;;;;4933853;29;20172;-77
2022/05/05 14:31:02;;;;;;;22.75;6.97;;;;;;;;;;4924319;29;20032;-77
2022/05/05 14:33:28;;;;;;;30.00;9.68;;;;;;;;;;4921523;29;20139;-76
2022/05/05 14:35:54;;;;;;;53.25;15.00;;;;;;;;;;4920230;29;20029;-77
2022/05/05 14:38:19;;;;;;;30.83;8.95;;;;;;;;;;4921374;29;20032;-76
2022/05/05 14:40:45;;;;;;;39.13;11.60;;;;;;;;;;4919005;29;20095;-77
2022/05/05 14:43:13;;;;;;;22.48;5.35;;;;;;;;;;4917805;29;20044;-76
2022/05/05 14:45:39;;;;;;;26.02;7.47;;;;;;;;;;4917532;29;20032;-79
2022/05/05 14:48:06;;;;;;;27.52;7.93;;;;;;;;;;4931471;29;20036;-75
2022/05/05 14:50:34;;;;;;;34.88;8.82;;;;;;;;;;4913417;29;20123;-75
2022/05/05 14:53:00;;;;;;;47.65;11.20;;;;;;;;;;4920753;29;20107;-77
2022/05/05 14:55:26;;;;;;;13.60;4.32;;;;;;;;;;4936272;29;20059;-76
2022/05/05 14:57:52;;;;;;;16.55;4.65;;;;;;;;;;4936008;29;20043;-75
2022/05/05 15:00:18;;;;;;;45.92;11.38;;;;;;;;;;4937034;29;20102;-75
2022/05/05 15:02:44;;;;;;;20.38;5.55;;;;;;;;;;4915444;29;20035;-76
2022/05/05 15:05:10;;;;;;;56.22;14.27;;;;;;;;;;4924033;29;20028;-77
2022/05/05 15:07:36;;;;;;;39.15;10.63;;;;;;;;;;4917965;29;20108;-76
2022/05/05 15:10:03;;;;;;;66.40;18.02;;;;;;;;;;4901371;29;20035;-77
2022/05/05 15:12:29;;;;;;;58.22;17.02;;;;;;;;;;4917384;29;20522;-77
2022/05/05 15:14:54;;;;;;;21.40;6.72;;;;;;;;;;4918144;29;20063;-75
2022/05/05 15:17:20;;;;;;;16.60;5.70;;;;;;;;;;4917296;29;20462;-76
2022/05/05 15:19:46;;;;;;;31.65;9.43;;;;;;;;;;4925774;29;20032;-76
2022/05/05 15:22:13;;;;;;;57.75;16.73;;;;;;;;;;4928706;29;20070;-77
2022/05/05 15:24:39;;;;;;;71.55;20.02;;;;;;;;;;4935849;29;20066;-77
2022/05/05 15:27:05;;;;;;;50.67;14.98;;;;;;;;;;4935945;29;20049;-77